Marlinton, WV (24954)

9:16 AM EDT on August 05, 2015 (GMT -0400)
RAWS | | Change Station
CLOSE
Current Station
Personal Weather Station
Location: Marlinton, WV
Elevation: 3082 ft
Nearby Weather Stations

Elev 3082 ft 38.22 °N, 80.04 °W | Updated 1 hour ago

Overcast
Overcast
65.0 °F
Feels Like 65.0 °F
N
1.0
Wind Variable Wind from WNW
Gusts 6.0 mph

Today
High -- | Low -- °F
--% Chance of Precip.
Yesterday
High -- | Low -- °F
Precip. -- in
6:25 AM 8:25 PM
Waning Gibbous, 67% visible
Pressure 30.17 in
Visibility 7.0 miles
Clouds Overcast 300 ft
Dew Point 60.0 °F
Humidity 85%
Rainfall in
Snow Depth Not available.
UV 1 out of 12
Pollen 5.80 out of 12
Air Quality Not available.
Flu Activity Not available.
METAR KHSP 051250Z AUTO 27009KT 7SM OVC003 19/18 A3017 RMK AO2 T01890181

More Conditions Fewer Conditions

Pressure 30.17 in
Visibility 7.0 miles
Clouds Overcast 300 ft
Dew Point 60.0 °F
Humidity 85%
Rainfall in
Snow Depth Not available.
UV 1 out of 12
Pollen 5.80 out of 12
Air Quality Not available.
Flu Activity Not available.
METAR KHSP 051250Z AUTO 27009KT 7SM OVC003 19/18 A3017 RMK AO2 T01890181

More Conditions Fewer Conditions

10-Day Weather Forecast

×

Almanac

Astronomy

Aug. 05, 2015 Rise Set
Actual Time
Civil Twilight
Nautical Twilight
Astronomical Twilight
Moon
Length of Visible Light
Length of Day
Tomorrow will be .
, % of the Moon is Illuminated

Today's Extremes

State Highs State Lows

Community

WunderPhotos

Upload Photos

1,844,180 photos uploaded!

WunderBlogs® & News

Nearby

Air Quality

  Air Quality AQ Index Pollutant
Not available.

Snow Depth

Station Depth Elevation

Earthquake Activity

City Distance Mag. Time & Date
Minimum magnitude displayed is 2.5.

Coastal Water Temperatures

Place Temperature

Stations

Nearby Weather Stations

Station Location Temp. Windchill Dew Point Humidity Wind Precip. Elev Updated Type